Data for 12/09/2006

Time Sea-Level Adjusted Pressure Absolute Pressure Temperature Relative Humidity Dew Point   
(mb) (inHg) (mb) (inHg) (C) (F) (%) (C) (F)
00:05 1014 29.94 844 24.92 2.3 36.1 49 -7.5 18.5
00:10 1014 29.94 843 24.89 2.7 36.8 49 -6.9 19.5
00:15 1014 29.94 843 24.89 2.4 36.4 49 -7.2 19.1
00:20 1014 29.94 843 24.89 2.1 35.9 50 -7.2 19.1
00:25 1014 29.94 843 24.89 2 35.6 50 -7.4 18.7
00:30 1014 29.94 843 24.89 2 35.6 50 -7.5 18.6
00:35 1014 29.94 843 24.89 2.4 36.3 48 -7.5 18.4
00:40 1014 29.94 843 24.89 2.5 36.4 48 -7.6 18.4
00:45 1014 29.94 843 24.89 2.3 36.1 48 -7.6 18.3
00:50 1014 29.94 843 24.89 2.2 35.9 49 -7.5 18.6
00:55 1014 29.94 843 24.89 2.1 35.8 48 -7.8 17.9
01:00 1014 29.94 843 24.89 2.3 36.2 47 -7.8 18
01:05 1014 29.94 843 24.89 2.2 35.9 48 -7.8 18
01:10 1014 29.94 843 24.89 2.1 35.8 48 -7.8 18
01:15 1014 29.94 843 24.89 1.7 35 51 -7.4 18.6
01:20 1014 29.94 843 24.89 1.8 35.3 49 -7.8 18
01:25 1013 29.91 843 24.89 1.5 34.7 51 -7.6 18.4
01:30 1013 29.91 843 24.89 1.4 34.5 51 -7.6 18.3
01:35 1013 29.91 843 24.89 1.3 34.4 51 -7.7 18.1
01:40 1013 29.91 842 24.86 1.2 34.2 52 -7.6 18.4
01:45 1013 29.91 842 24.86 1.3 34.3 50 -8.1 17.4
01:50 1013 29.91 842 24.86 1.5 34.7 49 -8.2 17.2
01:55 1013 29.91 842 24.86 1.4 34.6 50 -8 17.7
02:00 1013 29.91 842 24.86 1.3 34.3 51 -7.9 17.9
02:05 1013 29.91 842 24.86 1.9 35.5 48 -7.9 17.7
02:10 1013 29.91 842 24.86 1.5 34.7 48 -8.3 17.1
02:15 1013 29.91 842 24.86 2.3 36.2 46 -8 17.5
02:20 1013 29.91 842 24.86 2.4 36.3 45 -8.2 17.2
02:25 1013 29.91 842 24.86 1.8 35.3 47 -8.3 17.1
02:30 1013 29.91 842 24.86 1.8 35.2 49 -7.9 17.8
02:35 1012 29.88 842 24.86 1.4 34.5 51 -7.8 18
02:40 1012 29.88 842 24.86 1.2 34.1 51 -7.9 17.8
02:45 1012 29.88 842 24.86 1.8 35.2 45 -8.8 16.1
02:50 1012 29.88 842 24.86 2.4 36.3 46 -8.1 17.4
02:55 1012 29.88 842 24.86 2.1 35.8 47 -8 17.6
03:00 1012 29.88 842 24.86 2.3 36.1 47 -7.9 17.7
03:05 1013 29.91 842 24.86 2.5 36.5 44 -8.4 16.8
03:10 1013 29.91 842 24.86 2.7 36.9 45 -8.2 17.3
03:15 1013 29.91 842 24.86 2.1 35.8 49 -7.6 18.3
03:20 1013 29.91 842 24.86 1.9 35.5 48 -8 17.5
03:25 1013 29.91 842 24.86 1.6 34.8 50 -7.7 18.1
03:30 1013 29.91 842 24.86 1.1 33.9 52 -7.7 18.1
03:35 1013 29.91 842 24.86 0.4 32.7 54 -7.9 17.7
03:40 1013 29.91 842 24.86 0.3 32.5 55 -7.7 18.1
03:45 1013 29.91 842 24.86 -0 31.9 56 -7.9 17.8
03:50 1013 29.91 842 24.86 -0.2 31.6 57 -7.7 18.1
03:55 1013 29.91 842 24.86 -0 32 52 -8.8 16.1
04:00 1013 29.91 842 24.86 1.3 34.3 48 -8.4 16.8
04:05 1013 29.91 842 24.86 1.6 34.8 47 -8.5 16.7
04:10 1013 29.91 842 24.86 2.1 35.8 45 -8.7 16.4
04:15 1013 29.91 842 24.86 2.2 35.9 46 -8.4 16.9
04:20 1013 29.91 842 24.86 2.1 35.8 45 -8.6 16.6
04:25 1013 29.91 842 24.86 2.2 35.9 45 -8.5 16.7
04:30 1013 29.91 842 24.86 1.9 35.4 47 -8.3 17.1
04:35 1012 29.88 842 24.86 1.2 34.2 49 -8.3 17.1
04:40 1012 29.88 842 24.86 1.5 34.8 46 -9 15.9
04:45 1012 29.88 842 24.86 1.9 35.4 46 -8.5 16.7
04:50 1012 29.88 842 24.86 1.3 34.3 50 -8 17.5
04:55 1012 29.88 842 24.86 0.2 32.3 53 -8.4 16.9
05:00 1012 29.88 842 24.86 0.6 33.1 50 -8.6 16.5
05:05 1012 29.88 842 24.86 0.9 33.7 51 -8.2 17.2
05:10 1012 29.88 842 24.86 0.4 32.7 54 -7.9 17.7
05:15 1013 29.91 842 24.86 0.4 32.7 53 -8.2 17.2
05:20 1013 29.91 842 24.86 1.1 34 50 -8.2 17.3
05:25 1013 29.91 842 24.86 1.3 34.4 48 -8.5 16.7
05:30 1013 29.91 842 24.86 1.4 34.5 48 -8.4 16.8
05:35 1013 29.91 842 24.86 1.6 34.8 48 -8.4 16.8
05:40 1013 29.91 842 24.86 1.8 35.2 47 -8.5 16.7
05:45 1013 29.91 842 24.86 1.7 35 48 -8.3 17.1
05:50 1013 29.91 842 24.86 0.8 33.4 52 -8 17.5
05:55 1013 29.91 842 24.86 0.7 33.2 49 -8.8 16.1
06:00 1013 29.91 842 24.86 0.5 32.9 50 -8.8 16.2
06:05 1013 29.91 842 24.86 0 32 52 -8.6 16.5
06:10 1013 29.91 842 24.86 0.2 32.4 51 -8.8 16.2
06:15 1013 29.91 842 24.86 0.4 32.7 51 -8.7 16.3
06:20 1013 29.91 842 24.86 0.7 33.3 50 -8.6 16.6
06:25 1013 29.91 842 24.86 0.5 32.9 50 -8.8 16.2
06:30 1013 29.91 842 24.86 0.6 33.1 49 -9 15.7
06:35 1013 29.91 842 24.86 0.6 33.1 51 -8.5 16.7
06:40 1013 29.91 842 24.86 0.1 32.2 50 -9.1 15.6
06:45 1012 29.88 842 24.86 0.4 32.7 50 -8.9 16
06:50 1012 29.88 842 24.86 -0.1 31.7 52 -8.7 16.3
06:55 1012 29.88 842 24.86 -0.3 31.5 50 -9.5 15
07:00 1012 29.88 842 24.86 0.6 33.1 49 -8.9 15.9
07:05 1012 29.88 842 24.86 -0 32 52 -8.8 16.1
07:10 1012 29.88 842 24.86 0.3 32.5 47 -9.9 14.2
07:15 1012 29.88 841 24.83 1.1 33.9 47 -9 15.7
07:20 1012 29.88 841 24.83 0.4 32.8 49 -9.2 15.5
07:25 1012 29.88 841 24.83 1 33.8 46 -9.4 15.1
07:30 1012 29.88 841 24.83 0.9 33.5 47 -9.3 15.3
07:35 1012 29.88 841 24.83 0.8 33.5 47 -9.2 15.4
07:40 1012 29.88 841 24.83 1 33.7 47 -9.2 15.4
07:45 1012 29.88 841 24.83 1.2 34.1 46 -9.3 15.2
07:50 1012 29.88 841 24.83 1.3 34.4 45 -9.2 15.4
07:55 1012 29.88 841 24.83 1.6 34.8 44 -9.3 15.2
08:00 1012 29.88 841 24.83 2 35.6 45 -8.7 16.4
08:05 1012 29.88 841 24.83 2.3 36.2 43 -9 15.8
08:10 1012 29.88 841 24.83 2.1 35.8 46 -8.5 16.7
08:15 1012 29.88 841 24.83 1.9 35.4 43 -9.3 15.3
08:20 1012 29.88 841 24.83 2 35.5 44 -9.1 15.6
08:25 1012 29.88 841 24.83 2.4 36.3 43 -9 15.7
08:30 1012 29.88 841 24.83 2.7 36.9 43 -8.6 16.5
08:35 1012 29.88 841 24.83 2.4 36.3 43 -8.8 16.1
08:40 1012 29.88 841 24.83 2.9 37.2 43 -8.5 16.8
08:45 1012 29.88 841 24.83 2.3 36.1 48 -7.6 18.3
08:50 1012 29.88 841 24.83 1.5 34.7 50 -7.8 18
08:55 1012 29.88 841 24.83 0.9 33.7 51 -8.1 17.5
09:00 1012 29.88 842 24.86 0.8 33.4 53 -7.8 17.9
09:05 1012 29.88 841 24.83 0.7 33.3 52 -8.2 17.3
09:10 1012 29.88 842 24.86 0.9 33.7 52 -7.8 18
09:15 1012 29.88 842 24.86 0.7 33.2 54 -7.6 18.4
09:20 1012 29.88 842 24.86 0.5 33 56 -7.3 18.9
09:25 1012 29.88 842 24.86 0.4 32.7 56 -7.4 18.7
09:30 1012 29.88 842 24.86 -0.1 31.9 58 -7.3 18.9
09:35 1012 29.88 841 24.83 -0.1 31.9 58 -7.4 18.7
09:40 1012 29.88 841 24.83 -0 32 58 -7.4 18.7
09:45 1012 29.88 841 24.83 0.3 32.5 56 -7.4 18.6
09:50 1012 29.88 841 24.83 0.7 33.3 55 -7.3 18.9
09:55 1012 29.88 841 24.83 1 33.8 55 -7.1 19.3
10:00 1012 29.88 841 24.83 1.6 34.8 54 -6.8 19.8
10:05 1012 29.88 841 24.83 1.9 35.3 51 -7.1 19.2
10:10 1012 29.88 841 24.83 1.8 35.2 52 -7 19.4
10:15 1012 29.88 841 24.83 1.7 35 52 -7.1 19.3
10:20 1012 29.88 841 24.83 1.4 34.5 56 -6.5 20.2
10:25 1012 29.88 841 24.83 0.9 33.6 55 -7.1 19.2
10:30 1012 29.88 841 24.83 1 33.9 55 -7.1 19.3
10:35 1012 29.88 841 24.83 1.3 34.3 52 -7.5 18.6
10:40 1012 29.88 841 24.83 2 35.6 51 -7.1 19.2
10:45 1012 29.88 841 24.83 2.7 36.8 47 -7.6 18.4
10:50 1012 29.88 841 24.83 3.2 37.8 48 -6.7 19.9
10:55 1012 29.88 841 24.83 2.8 37 48 -7.2 19
11:00 1012 29.88 841 24.83 3 37.4 50 -6.4 20.5
11:05 1012 29.88 841 24.83 2.8 37 52 -6.2 20.8
11:10 1012 29.88 841 24.83 2.9 37.1 51 -6.2 20.8
11:15 1012 29.88 841 24.83 3.2 37.8 49 -6.4 20.5
11:20 1012 29.88 841 24.83 3.3 37.9 50 -6.1 21.1
11:25 1012 29.88 841 24.83 3.3 37.9 50 -6.1 21.1
11:30 1012 29.88 841 24.83 3.5 38.3 52 -5.5 22.2
11:35 1012 29.88 841 24.83 2.8 37.1 54 -5.7 21.8
11:40 1012 29.88 841 24.83 2.8 37 54 -5.7 21.7
11:45 1012 29.88 841 24.83 3.2 37.7 50 -6.2 20.9
11:50 1012 29.88 841 24.83 3.3 38 52 -5.5 22.1
11:55 1012 29.88 841 24.83 3.3 38 51 -5.9 21.5
12:00 1012 29.88 841 24.83 3.7 38.7 50 -5.8 21.6
12:05 1012 29.88 841 24.83 3.4 38.2 51 -5.7 21.8
12:10 1012 29.88 841 24.83 3.4 38.2 51 -5.7 21.8
12:15 1012 29.88 841 24.83 3.3 38 52 -5.6 21.8
12:20 1012 29.88 841 24.83 3.4 38.1 48 -6.7 19.9
12:25 1012 29.88 841 24.83 3.8 38.8 48 -6.3 20.6
12:30 1012 29.88 841 24.83 3.9 39.1 49 -5.9 21.4
12:35 1012 29.88 841 24.83 4.1 39.3 46 -6.7 20
12:40 1012 29.88 841 24.83 4.2 39.6 45 -6.5 20.2
12:45 1012 29.88 841 24.83 4.2 39.5 44 -7.1 19.2
12:50 1012 29.88 841 24.83 4.5 40 43 -7 19.5
12:55 1012 29.88 841 24.83 4.5 40.1 44 -6.7 19.9
13:00 1012 29.88 841 24.83 4.6 40.3 44 -6.5 20.2
13:05 1012 29.88 841 24.83 4.7 40.5 43 -6.7 20
13:10 1012 29.88 841 24.83 4.8 40.6 44 -6.6 20.2
13:15 1012 29.88 841 24.83 5 40.9 42 -6.8 19.8
13:20 1012 29.88 841 24.83 5.1 41.1 43 -6.4 20.5
13:25 1012 29.88 841 24.83 5.2 41.3 44 -6 21.2
13:30 1012 29.88 841 24.83 5.3 41.6 44 -6.1 21.1
13:35 1012 29.88 841 24.83 5.8 42.5 42 -6 21.2
13:40 1012 29.88 841 24.83 6.2 43.2 42 -5.9 21.4
13:45 1012 29.88 841 24.83 6.5 43.6 40 -6.1 21.1
13:50 1012 29.88 841 24.83 6.7 44 41 -5.8 21.6
13:55 1012 29.88 841 24.83 6.6 43.8 42 -5.3 22.4
14:00 1012 29.88 841 24.83 6.6 43.9 44 -4.8 23.4
14:05 1012 29.88 841 24.83 6.5 43.7 42 -5.3 22.4
14:10 1012 29.88 841 24.83 6.4 43.5 43 -5.2 22.6
14:15 1012 29.88 841 24.83 6.2 43.2 45 -4.8 23.3
14:20 1012 29.88 841 24.83 6.1 43 46 -4.7 23.5
14:25 1012 29.88 841 24.83 5.9 42.7 44 -5.4 22.3
14:30 1012 29.88 841 24.83 5.6 42 44 -5.6 21.9
14:35 1012 29.88 841 24.83 5.6 42 43 -6 21.3
14:40 1012 29.88 841 24.83 5.7 42.2 45 -5.3 22.5
14:45 1012 29.88 841 24.83 5.7 42.2 43 -6.1 21.1
14:50 1012 29.88 841 24.83 6.1 43 41 -6.3 20.6
14:55 1012 29.88 841 24.83 6.4 43.6 39 -6.4 20.5
15:00 1012 29.88 841 24.83 6.5 43.8 38 -6.9 19.6
15:05 1012 29.88 841 24.83 6.8 44.3 38 -6.7 20
15:10 1012 29.88 841 24.83 7.2 44.9 37 -6.7 20
15:15 1012 29.88 841 24.83 7.1 44.8 35 -7.4 18.7
15:20 1012 29.88 841 24.83 6.7 44.1 36 -7.4 18.8
15:25 1012 29.88 841 24.83 6.7 44 37 -7.1 19.2
15:30 1012 29.88 841 24.83 6.7 44.1 37 -7 19.3
15:35 1012 29.88 841 24.83 6.8 44.2 37 -7.1 19.3
15:40 1012 29.88 841 24.83 6.8 44.2 38 -6.6 20.2
15:45 1012 29.88 841 24.83 7 44.6 39 -6.2 20.9
15:50 1012 29.88 841 24.83 7 44.6 41 -5.4 22.3
15:55 1012 29.88 841 24.83 7.2 45 41 -5.1 22.9
16:00 1012 29.88 841 24.83 7.9 46.3 38 -5.5 22.1
16:05 1012 29.88 841 24.83 8.1 46.5 36 -6.3 20.7
16:10 1012 29.88 841 24.83 8.5 47.3 38 -5 23
16:15 1012 29.88 841 24.83 7.4 45.4 40 -5.4 22.3
16:20 1012 29.88 841 24.83 6.5 43.7 45 -4.6 23.7
16:25 1012 29.88 841 24.83 5.8 42.4 45 -5.3 22.4
16:30 1012 29.88 841 24.83 5.7 42.2 43 -5.8 21.5
16:35 1012 29.88 841 24.83 5.6 42.1 42 -6.4 20.5
16:40 1012 29.88 841 24.83 5.5 41.9 43 -6 21.2
16:45 1012 29.88 841 24.83 5.5 41.9 43 -6 21.2
16:50 1012 29.88 841 24.83 5.5 41.9 43 -6 21.2
16:55 1012 29.88 841 24.83 5.2 41.3 45 -5.8 21.6
17:00 1012 29.88 841 24.83 4.6 40.3 47 -5.6 21.9
17:05 1012 29.88 841 24.83 4.3 39.8 50 -5.2 22.7
17:10 1012 29.88 841 24.83 4.1 39.4 51 -5.1 22.9
17:15 1012 29.88 841 24.83 3.8 38.8 51 -5.5 22.1
17:20 1012 29.88 841 24.83 3.4 38 54 -5 23
17:25 1012 29.88 841 24.83 2.2 36 60 -4.8 23.3
17:30 1012 29.88 841 24.83 2 35.6 56 -5.9 21.4
17:35 1012 29.88 841 24.83 3.4 38.1 50 -6.2 20.9
17:40 1012 29.88 841 24.83 3.7 38.6 50 -5.9 21.3
17:45 1012 29.88 841 24.83 3.5 38.3 50 -6 21.1
17:50 1012 29.88 841 24.83 3.2 37.7 51 -6 21.2
17:55 1012 29.88 841 24.83 3.2 37.8 46 -7.2 19
18:00 1012 29.88 841 24.83 4.1 39.4 44 -7.1 19.2
18:05 1012 29.88 841 24.83 4.4 39.9 44 -6.9 19.6
18:10 1012 29.88 841 24.83 4.2 39.6 45 -6.7 20
18:15 1012 29.88 841 24.83 3.7 38.6 49 -6.1 21.1
18:20 1012 29.88 841 24.83 3.2 37.7 50 -6.2 20.9
18:25 1012 29.88 841 24.83 3 37.4 51 -6.2 20.9
18:30 1012 29.88 841 24.83 2.8 37.1 52 -6.1 21.1
18:35 1012 29.88 841 24.83 2.8 37.1 51 -6.2 20.8
18:40 1012 29.88 841 24.83 3.3 37.9 49 -6.4 20.4
18:45 1012 29.88 841 24.83 3.4 38.1 49 -6.4 20.6
18:50 1012 29.88 841 24.83 2.9 37.3 51 -6.1 20.9
18:55 1012 29.88 841 24.83 2.8 37 51 -6.3 20.7
19:00 1012 29.88 841 24.83 2.8 37.1 51 -6.2 20.8
19:05 1012 29.88 841 24.83 2.9 37.1 51 -6.3 20.6
19:10 1012 29.88 841 24.83 3 37.4 50 -6.3 20.6
19:15 1012 29.88 841 24.83 3 37.4 50 -6.3 20.7
19:20 1012 29.88 841 24.83 3.3 38 48 -6.5 20.2
19:25 1012 29.88 841 24.83 3.4 38.1 49 -6.3 20.6
19:30 1012 29.88 841 24.83 2.9 37.3 49 -6.8 19.8
19:35 1012 29.88 841 24.83 2.8 37 51 -6.4 20.4
19:40 1012 29.88 841 24.83 2.7 36.9 50 -6.6 20.1
19:45 1012 29.88 841 24.83 2.6 36.6 51 -6.6 20.1
19:50 1012 29.88 841 24.83 2.4 36.3 51 -6.7 20
19:55 1012 29.88 841 24.83 2.3 36.2 51 -6.7 20
20:00 1012 29.88 841 24.83 2.9 37.1 49 -6.8 19.8
20:05 1012 29.88 841 24.83 2.6 36.6 50 -6.8 19.8
20:10 1012 29.88 841 24.83 2.3 36.2 50 -7 19.3
20:15 1012 29.88 841 24.83 2.6 36.7 50 -6.9 19.6
20:20 1012 29.88 841 24.83 2.6 36.7 50 -6.8 19.8
20:25 1012 29.88 841 24.83 2 35.6 51 -7.1 19.2
20:30 1012 29.88 841 24.83 1.9 35.5 51 -7.2 19
20:35 1012 29.88 841 24.83 2 35.6 51 -7 19.5
20:40 1012 29.88 841 24.83 2.3 36.1 51 -7 19.5
20:45 1012 29.88 841 24.83 2.3 36.1 51 -6.9 19.6
20:50 1012 29.88 841 24.83 2.1 35.8 52 -6.8 19.8
20:55 1012 29.88 841 24.83 1.8 35.3 53 -6.8 19.7
21:00 1012 29.88 841 24.83 1.7 35 53 -6.8 19.7
21:05 1012 29.88 841 24.83 1.7 35.1 52 -7.1 19.2
21:10 1012 29.88 841 24.83 1.8 35.3 52 -7.1 19.1
21:15 1012 29.88 841 24.83 1.9 35.3 52 -7.1 19.2
21:20 1012 29.88 841 24.83 1.4 34.6 52 -7.3 18.8
21:25 1012 29.88 841 24.83 1.1 34 53 -7.4 18.6
21:30 1012 29.88 841 24.83 1.2 34.1 53 -7.5 18.6
21:35 1012 29.88 841 24.83 1 33.8 53 -7.6 18.4
21:40 1012 29.88 841 24.83 0.7 33.3 54 -7.6 18.2
21:45 1012 29.88 841 24.83 0.8 33.5 53 -7.7 18.1
21:50 1012 29.88 841 24.83 1.1 34 52 -7.8 18
21:55 1012 29.88 841 24.83 1 33.8 52 -7.7 18.2
22:00 1012 29.88 841 24.83 0.8 33.4 53 -7.8 18
22:05 1012 29.88 841 24.83 0.9 33.6 52 -7.8 18
22:10 1012 29.88 841 24.83 1.3 34.3 51 -7.7 18.2
22:15 1012 29.88 841 24.83 0.8 33.4 53 -7.7 18.2
22:20 1012 29.88 841 24.83 0.4 32.7 53 -8 17.6
22:25 1012 29.88 841 24.83 0.5 32.9 54 -7.7 18.2
22:30 1012 29.88 841 24.83 0.6 33 54 -7.7 18.1
22:35 1012 29.88 841 24.83 0.7 33.3 53 -7.8 18
22:40 1012 29.88 841 24.83 0.8 33.5 53 -7.6 18.3
22:45 1012 29.88 841 24.83 0.6 33.1 53 -7.8 18
22:50 1012 29.88 842 24.86 0.5 33 54 -7.7 18.1
22:55 1012 29.88 842 24.86 0.6 33.1 54 -7.7 18.1
23:00 1012 29.88 841 24.83 1 33.7 52 -7.8 18
23:05 1012 29.88 841 24.83 0.9 33.6 53 -7.7 18.1
23:10 1012 29.88 842 24.86 0.6 33.1 53 -7.9 17.8
23:15 1012 29.88 842 24.86 0.8 33.4 53 -7.8 18
23:20 1013 29.91 842 24.86 0.8 33.4 53 -7.8 17.9
23:25 1013 29.91 842 24.86 0.8 33.4 53 -7.8 17.9
23:30 1013 29.91 842 24.86 0.9 33.6 52 -8 17.6
23:35 1013 29.91 842 24.86 0.8 33.5 52 -7.9 17.7
23:40 1013 29.91 842 24.86 0.8 33.4 52 -7.9 17.8
23:45 1013 29.91 842 24.86 0.7 33.2 53 -7.9 17.9
23:50 1013 29.91 842 24.86 0.5 32.9 53 -7.9 17.8
23:55 1012 29.88 842 24.86 0.8 33.4 53 -7.8 17.9
24:00 1012 29.88 842 24.86 0.9 33.6 52 -7.9 17.8